Time;durP1;ratioP1;P1;durP2;ratioP2;P2;SDS_P1;SDS_P2;PMS_P1;PMS_P2;Temp;Humidity;BMP_temperature;BMP_pressure;BME280_temperature;BME280_humidity;BME280_pressure;Samples;Min_cycle;Max_cycle;Signal;HPM_P1;HPM_P2
2023/08/02 00:04:48;;;;;;;2.72;1.17;;;;;;;16.68;66.16;98757.66;10479524;28;20040;-57
2023/08/02 00:09:50;;;;;;;2.53;1.08;;;;;;;16.69;66.22;98757.50;10479297;28;20052;-56
2023/08/02 00:14:52;;;;;;;3.80;1.40;;;;;;;16.66;66.36;98756.97;10476301;28;20127;-56
2023/08/02 00:19:54;;;;;;;3.67;1.27;;;;;;;16.67;66.04;98750.72;10474553;28;20143;-51
2023/08/02 00:24:56;;;;;;;1.90;1.33;;;;;;;16.69;66.30;98748.75;10461172;28;20415;-56
2023/08/02 00:29:58;;;;;;;3.53;1.10;;;;;;;16.68;66.29;98753.22;10478887;28;20102;-55
2023/08/02 00:35:02;;;;;;;3.83;1.70;;;;;;;16.69;66.25;98744.28;10471574;28;20055;-57
2023/08/02 00:40:05;;;;;;;1.67;0.90;;;;;;;16.73;66.27;98732.44;10477138;28;20449;-57
2023/08/02 00:45:08;;;;;;;0.88;0.82;;;;;;;16.73;66.21;98735.06;10478344;28;20048;-55
2023/08/02 00:50:10;;;;;;;1.40;0.90;;;;;;;16.69;66.13;98725.81;10473462;28;20044;-57
2023/08/02 00:55:13;;;;;;;2.67;1.05;;;;;;;16.67;66.44;98737.53;10472955;28;20048;-56
2023/08/02 01:00:15;;;;;;;2.50;1.00;;;;;;;16.68;65.95;98726.81;10473677;28;20244;-56
2023/08/02 01:05:20;;;;;;;2.92;1.05;;;;;;;16.65;66.23;98731.59;10472652;28;20147;-58
2023/08/02 01:10:31;;;;;;;2.40;0.90;;;;;;;16.70;65.84;98719.56;10488085;28;20080;-53
2023/08/02 01:15:33;;;;;;;;;;;;;;;16.57;66.67;98697.25;10455107;28;20123;-57
2023/08/02 01:20:35;;;;;;;1.48;1.10;;;;;;;16.66;66.03;98691.00;10455295;28;20010;-57
2023/08/02 01:25:41;;;;;;;0.85;0.80;;;;;;;16.70;65.85;98687.88;10453472;28;20033;-56
2023/08/02 01:30:45;;;;;;;2.28;0.98;;;;;;;16.66;65.89;98683.06;10472241;28;20328;-58
2023/08/02 01:35:49;;;;;;;1.98;1.08;;;;;;;16.73;66.12;98689.38;10453536;28;20139;-58
2023/08/02 01:40:51;;;;;;;1.23;0.85;;;;;;;16.68;65.91;98676.66;10471971;28;20098;-57
2023/08/02 01:45:53;;;;;;;2.25;1.17;;;;;;;16.64;66.21;98682.41;10468492;28;20106;-58
2023/08/02 01:50:56;;;;;;;2.65;1.00;;;;;;;16.62;66.28;98685.22;10477990;28;20508;-58
2023/08/02 01:55:58;;;;;;;0.82;0.70;;;;;;;16.56;66.34;98663.91;10477397;28;20051;-56
2023/08/02 02:01:00;;;;;;;6.50;1.52;;;;;;;16.57;66.31;98645.25;10449091;28;20056;-57
2023/08/02 02:06:02;;;;;;;1.67;0.88;;;;;;;16.40;65.93;98640.06;10483561;28;20093;-57
2023/08/02 02:11:04;;;;;;;3.13;0.80;;;;;;;16.23;66.61;98641.81;10475329;28;20048;-58
2023/08/02 02:16:06;;;;;;;1.77;0.90;;;;;;;16.22;66.69;98627.78;10459839;28;20056;-57
2023/08/02 02:21:09;;;;;;;2.50;0.82;;;;;;;16.26;66.25;98619.56;10464323;28;20036;-58
2023/08/02 02:26:11;;;;;;;1.38;0.93;;;;;;;16.21;66.66;98617.41;10477388;28;20144;-57
2023/08/02 02:31:13;;;;;;;1.70;1.13;;;;;;;16.19;66.86;98609.66;10478876;28;20072;-57
2023/08/02 02:36:15;;;;;;;3.20;1.27;;;;;;;16.08;67.21;98599.38;10492587;28;20052;-57
2023/08/02 02:41:17;;;;;;;3.60;1.40;;;;;;;16.14;67.00;98592.66;10477323;28;20045;-58
2023/08/02 02:46:19;;;;;;;3.85;1.42;;;;;;;16.03;66.97;98591.13;10482555;28;20322;-57
2023/08/02 02:51:21;;;;;;;7.53;0.90;;;;;;;15.93;67.26;98569.31;10476810;28;20488;-57
2023/08/02 02:56:24;;;;;;;1.83;0.68;;;;;;;15.78;67.39;98573.53;10491142;28;20473;-58
2023/08/02 03:01:26;;;;;;;1.77;0.98;;;;;;;15.63;67.47;98551.38;10456933;28;20530;-58
2023/08/02 03:06:28;;;;;;;2.25;1.30;;;;;;;15.68;67.80;98556.16;10476098;28;20049;-56
2023/08/02 03:11:30;;;;;;;2.10;1.10;;;;;;;15.54;68.02;98546.19;10483592;28;20127;-57
2023/08/02 03:16:32;;;;;;;1.88;0.85;;;;;;;15.54;68.25;98539.13;10451471;28;20055;-57
2023/08/02 03:21:34;;;;;;;1.85;1.08;;;;;;;15.52;68.60;98554.28;10467555;28;20048;-55
2023/08/02 03:26:36;;;;;;;3.88;1.20;;;;;;;15.53;68.51;98528.75;10476575;28;20205;-56
2023/08/02 03:31:38;;;;;;;2.17;1.02;;;;;;;15.60;68.42;98500.78;10452723;28;20055;-57
2023/08/02 03:36:42;;;;;;;1.75;1.13;;;;;;;15.68;68.19;98508.72;10472136;28;20417;-55
2023/08/02 03:41:45;;;;;;;2.30;1.10;;;;;;;15.67;68.20;98497.38;10477431;28;20053;-56
2023/08/02 03:46:47;;;;;;;2.13;1.23;;;;;;;15.54;68.41;98482.97;10474783;28;20044;-57
2023/08/02 03:51:49;;;;;;;2.28;1.27;;;;;;;15.41;68.55;98467.53;10474774;28;20311;-58
2023/08/02 03:56:51;;;;;;;2.97;1.20;;;;;;;15.54;68.71;98481.16;10475378;28;20048;-57
2023/08/02 04:01:53;;;;;;;1.77;1.00;;;;;;;15.59;68.44;98488.59;10472454;28;20059;-57
2023/08/02 04:06:55;;;;;;;3.72;1.10;;;;;;;15.59;68.86;98499.94;10454401;28;20416;-55
2023/08/02 04:11:57;;;;;;;3.83;1.40;;;;;;;15.61;68.99;98497.16;10472792;28;20139;-57
2023/08/02 04:16:59;;;;;;;2.92;1.33;;;;;;;15.40;69.46;98500.16;10466574;28;20132;-58
2023/08/02 04:22:01;;;;;;;5.40;1.65;;;;;;;15.49;69.45;98480.78;10469624;28;20049;-53
2023/08/02 04:27:03;;;;;;;5.03;1.45;;;;;;;15.67;69.26;98467.53;10478864;28;20079;-57
2023/08/02 04:32:06;;;;;;;3.67;1.20;;;;;;;15.69;68.96;98455.03;10453641;28;20063;-56
2023/08/02 04:37:08;;;;;;;3.35;1.38;;;;;;;15.72;69.10;98467.88;10474498;28;20137;-58
2023/08/02 04:42:10;;;;;;;2.15;1.10;;;;;;;15.63;69.07;98455.69;10471234;28;20086;-55
2023/08/02 04:47:12;;;;;;;4.35;1.38;;;;;;;15.81;68.95;98446.69;10473932;28;20256;-57
2023/08/02 04:52:14;;;;;;;2.40;1.40;;;;;;;15.90;68.95;98437.78;10477762;28;20174;-58
2023/08/02 04:57:16;;;;;;;2.08;1.30;;;;;;;15.96;68.73;98426.59;10480750;28;20318;-55
2023/08/02 05:02:18;;;;;;;1.65;1.05;;;;;;;16.05;68.57;98430.91;10476644;28;20056;-58
2023/08/02 05:07:20;;;;;;;3.30;1.77;;;;;;;16.15;68.21;98428.13;10472024;28;20117;-58
2023/08/02 05:12:22;;;;;;;2.33;0.98;;;;;;;16.22;68.28;98408.81;10467023;28;20132;-59
2023/08/02 05:17:24;;;;;;;1.50;1.10;;;;;;;16.23;68.15;98399.09;10473412;28;20048;-58
2023/08/02 05:22:26;;;;;;;2.50;1.35;;;;;;;16.41;68.21;98388.38;10480687;28;20676;-57
2023/08/02 05:27:28;;;;;;;2.15;1.27;;;;;;;16.43;68.13;98383.75;10475954;28;20139;-59
2023/08/02 05:32:30;;;;;;;2.33;1.30;;;;;;;16.46;67.77;98371.13;10483017;28;20415;-57
2023/08/02 05:37:32;;;;;;;3.13;1.60;;;;;;;16.47;67.86;98369.31;10472569;28;20048;-57
2023/08/02 05:42:34;;;;;;;2.42;1.38;;;;;;;16.55;67.77;98335.78;10464212;28;20044;-58
2023/08/02 05:47:37;;;;;;;3.15;1.83;;;;;;;16.34;68.08;98317.00;10472796;28;20040;-59
2023/08/02 05:52:39;;;;;;;3.53;1.40;;;;;;;16.31;68.19;98301.50;10451774;28;20094;-56
2023/08/02 05:57:41;;;;;;;5.35;1.33;;;;;;;16.20;68.00;98294.75;10470085;28;20051;-58
2023/08/02 06:02:43;;;;;;;3.22;1.30;;;;;;;16.28;67.97;98285.19;10452145;28;20577;-60
2023/08/02 06:07:46;;;;;;;2.10;1.20;;;;;;;16.24;68.18;98282.06;10478621;28;20051;-60
2023/08/02 06:12:48;;;;;;;2.03;1.13;;;;;;;16.30;67.76;98291.94;10469893;28;20044;-60
2023/08/02 06:23:27;;;;;;;3.80;1.40;;;;;;;15.81;68.67;98270.06;10540580;27;20136;-60
2023/08/02 06:28:29;;;;;;;2.08;1.15;;;;;;;15.99;68.41;98270.72;10539731;28;20204;-60
2023/08/02 06:33:32;;;;;;;1.92;1.30;;;;;;;16.20;67.82;98255.19;10521959;28;20176;-61
2023/08/02 06:38:34;;;;;;;1.80;0.98;;;;;;;16.23;67.75;98228.47;10540202;28;20047;-60
2023/08/02 06:43:36;;;;;;;1.98;1.27;;;;;;;16.49;67.93;98227.47;10536714;28;20476;-61
2023/08/02 06:48:38;;;;;;;2.08;1.05;;;;;;;16.68;67.75;98224.41;10535484;28;20048;-61
2023/08/02 06:53:40;;;;;;;2.40;1.20;;;;;;;16.87;67.50;98208.16;10539365;28;20090;-61
2023/08/02 06:58:43;;;;;;;8.85;2.38;;;;;;;17.17;66.88;98219.72;10524975;28;20070;-61
2023/08/02 07:03:46;;;;;;;1.73;0.90;;;;;;;17.39;66.04;98211.84;10528425;28;20097;-60
2023/08/02 07:08:49;;;;;;;2.58;1.10;;;;;;;17.66;65.57;98219.22;10531293;28;20044;-60
2023/08/02 07:13:51;;;;;;;1.42;0.90;;;;;;;17.61;65.54;98213.63;10531257;28;20054;-60
2023/08/02 07:18:53;;;;;;;2.10;0.70;;;;;;;17.38;65.85;98206.72;10526778;28;20044;-61
2023/08/02 07:23:55;;;;;;;1.00;0.75;;;;;;;17.36;66.35;98196.34;10527185;28;20050;-59
2023/08/02 07:28:57;;;;;;;2.28;1.63;;;;;;;17.37;66.06;98195.34;10525755;28;20043;-60
2023/08/02 07:33:59;;;;;;;0.50;0.50;;;;;;;17.56;65.72;98172.88;10486933;28;20052;-60
2023/08/02 08:29:09;;;;;;;;;;;;;;;16.24;73.12;98074.47;10504838;27;20204;-60
2023/08/02 08:34:13;;;;;;;0.45;0.45;;;;;;;16.72;69.98;98062.03;10496766;28;19947;-61
2023/08/02 08:39:15;;;;;;;0.40;0.40;;;;;;;17.06;69.33;98049.25;10503226;28;20071;-60
2023/08/02 08:44:17;;;;;;;0.32;0.30;;;;;;;17.37;68.97;98031.50;10495345;28;20553;-59
2023/08/02 08:49:19;;;;;;;0.93;0.70;;;;;;;17.68;68.19;98034.81;10484265;28;20036;-60
2023/08/02 08:54:27;;;;;;;0.20;0.20;;;;;;;17.85;67.28;98030.97;10494138;28;20078;-60
2023/08/02 08:59:30;;;;;;;2.70;0.40;;;;;;;18.13;67.13;98025.00;10497770;28;20056;-60
2023/08/02 09:04:34;;;;;;;0.20;0.20;;;;;;;18.21;66.42;98020.47;10478611;28;20388;-60
2023/08/02 09:09:36;;;;;;;0.50;0.38;;;;;;;18.13;66.21;98006.50;10497737;28;20056;-60
2023/08/02 09:14:38;;;;;;;0.47;0.47;;;;;;;18.07;66.70;98001.94;10497608;28;20044;-60
2023/08/02 09:19:40;;;;;;;0.20;0.20;;;;;;;18.14;66.14;97985.13;10477968;28;20052;-60
2023/08/02 09:24:44;;;;;;;1.05;0.40;;;;;;;18.02;66.73;97978.69;10496678;28;20056;-60
2023/08/02 09:29:51;;;;;;;0.30;0.30;;;;;;;17.94;66.70;97967.38;10510101;28;20651;-60
2023/08/02 09:34:58;;;;;;;0.20;0.20;;;;;;;17.88;67.46;97963.66;10497319;28;20221;-59
2023/08/02 09:40:01;;;;;;;0.10;0.10;;;;;;;17.98;67.07;97963.38;10468937;28;20040;-60
2023/08/02 09:45:04;;;;;;;0.10;0.10;;;;;;;18.12;67.07;97955.41;10469490;28;20040;-60
2023/08/02 09:50:07;;;;;;;0.10;0.10;;;;;;;18.28;66.75;97941.16;10461416;28;20139;-60
2023/08/02 09:55:12;;;;;;;0.22;0.20;;;;;;;18.34;66.36;97937.75;10468772;28;20044;-59
2023/08/02 10:00:15;;;;;;;0.20;0.10;;;;;;;18.32;66.03;97921.25;10465423;28;20060;-59
2023/08/02 10:05:18;;;;;;;0.20;0.20;;;;;;;18.41;66.73;97922.75;10468686;28;20048;-59
2023/08/02 10:10:37;;;;;;;0.10;0.10;;;;;;;18.16;67.78;97909.03;10465561;28;20041;-59
2023/08/02 10:15:41;;;;;;;1.90;0.28;;;;;;;18.32;67.15;97906.19;10467251;28;20044;-59
2023/08/02 10:20:48;;;;;;;0.15;0.15;;;;;;;18.35;67.67;97895.22;10437093;28;20087;-59
2023/08/02 10:25:50;;;;;;;0.43;0.20;;;;;;;18.35;67.23;97878.53;10424074;28;20414;-60
2023/08/02 10:30:52;;;;;;;0.20;0.20;;;;;;;18.12;67.41;97867.28;10423679;28;20048;-59
2023/08/02 10:36:05;;;;;;;0.30;0.30;;;;;;;18.19;67.75;97865.53;10425018;28;20143;-60
2023/08/02 10:41:16;;;;;;;0.20;0.20;;;;;;;18.54;67.43;97846.91;10423795;28;20047;-60
2023/08/02 10:46:24;;;;;;;0.43;0.38;;;;;;;18.51;67.24;97849.13;10421330;28;20041;-60
2023/08/02 10:51:26;;;;;;;0.35;0.30;;;;;;;18.39;68.19;97832.13;10415834;28;20045;-59
2023/08/02 10:56:28;;;;;;;0.10;0.10;;;;;;;18.58;67.96;97823.53;10420623;28;20052;-60
2023/08/02 11:01:31;;;;;;;0.52;0.25;;;;;;;18.65;67.61;97798.72;10418483;28;20048;-59
2023/08/02 11:06:35;;;;;;;0.20;0.20;;;;;;;18.90;67.94;97819.44;10419614;28;20052;-60
2023/08/02 11:11:38;;;;;;;0.30;0.30;;;;;;;19.08;67.40;97804.72;10417532;28;20088;-60
2023/08/02 11:16:42;;;;;;;0.20;0.20;;;;;;;19.33;67.78;97789.13;10423977;28;20057;-60
2023/08/02 11:21:57;;;;;;;0.52;0.32;;;;;;;19.62;66.76;97788.00;10415027;28;20056;-60
2023/08/02 11:26:59;;;;;;;0.30;0.30;;;;;;;19.80;67.03;97785.59;10420956;28;20049;-60
2023/08/02 11:32:04;;;;;;;0.20;0.20;;;;;;;19.96;66.36;97764.00;10417655;28;20040;-60
2023/08/02 11:37:08;;;;;;;0.10;0.10;;;;;;;20.27;66.28;97753.59;10419121;28;20048;-60
2023/08/02 11:42:10;;;;;;;0.35;0.10;;;;;;;20.52;65.60;97743.94;10419178;28;20041;-60
2023/08/02 11:47:13;;;;;;;0.10;0.10;;;;;;;20.87;65.38;97734.69;10421943;28;20118;-60
2023/08/02 11:52:24;;;;;;;0.17;0.10;;;;;;;21.08;64.39;97718.47;10415926;28;20454;-61
2023/08/02 11:57:27;;;;;;;0.20;0.20;;;;;;;21.10;64.69;97715.59;10421025;28;20382;-60
2023/08/02 12:02:31;;;;;;;0.10;0.10;;;;;;;21.05;64.56;97704.78;10419638;28;20041;-60
2023/08/02 12:07:35;;;;;;;0.10;0.10;;;;;;;20.95;64.97;97723.84;10417730;28;20509;-60
2023/08/02 12:12:37;;;;;;;0.10;0.10;;;;;;;21.03;64.63;97704.16;10420618;28;20564;-60
2023/08/02 12:17:39;;;;;;;0.10;0.10;;;;;;;21.29;64.13;97689.94;10418527;28;20374;-60
2023/08/02 12:22:48;;;;;;;0.10;0.10;;;;;;;21.80;63.71;97685.34;10417382;28;20053;-61
2023/08/02 12:28:04;;;;;;;0.20;0.20;;;;;;;22.27;63.35;97676.72;10418653;28;20116;-60
2023/08/02 12:33:06;;;;;;;0.20;0.20;;;;;;;22.59;62.80;97680.91;10418460;28;20084;-60
2023/08/02 12:38:09;;;;;;;0.10;0.10;;;;;;;22.83;62.34;97681.06;10421150;28;20080;-60
2023/08/02 12:43:11;;;;;;;0.25;0.10;;;;;;;23.10;61.57;97667.19;10416991;28;20136;-60
2023/08/02 12:48:13;;;;;;;0.15;0.15;;;;;;;23.58;60.48;97666.31;10415646;28;20044;-60
2023/08/02 12:53:15;;;;;;;0.10;0.10;;;;;;;23.51;60.35;97645.09;10413186;28;20048;-60
2023/08/02 12:58:17;;;;;;;0.20;0.20;;;;;;;23.66;60.09;97644.63;10423292;28;20060;-60
2023/08/02 13:03:19;;;;;;;0.20;0.20;;;;;;;23.32;60.09;97643.50;10419273;28;20041;-60
2023/08/02 13:08:21;;;;;;;1.80;0.20;;;;;;;23.07;60.27;97642.81;10422531;28;20049;-60
2023/08/02 13:13:24;;;;;;;0.20;0.20;;;;;;;22.67;60.76;97623.84;10422121;28;20052;-60
2023/08/02 13:18:26;;;;;;;0.20;0.20;;;;;;;22.56;61.04;97643.22;10428765;28;20609;-60
2023/08/02 13:23:31;;;;;;;0.30;0.30;;;;;;;22.60;61.18;97642.56;10425897;28;20041;-60
2023/08/02 13:28:33;;;;;;;0.13;0.13;;;;;;;22.65;61.51;97645.38;10424794;28;20475;-60
2023/08/02 13:33:35;;;;;;;0.30;0.30;;;;;;;22.41;62.29;97656.13;10422103;28;20053;-60
2023/08/02 13:38:37;;;;;;;0.30;0.20;;;;;;;22.36;63.07;97648.78;10420743;28;20406;-60
2023/08/02 13:43:39;;;;;;;0.47;0.30;;;;;;;22.50;62.72;97636.13;10420785;28;20044;-60
2023/08/02 13:48:41;;;;;;;0.52;0.50;;;;;;;22.37;63.11;97602.47;10426661;28;20540;-61
2023/08/02 13:53:43;;;;;;;0.20;0.20;;;;;;;22.14;64.46;97610.31;10426375;28;20262;-60
2023/08/02 13:58:45;;;;;;;0.28;0.28;;;;;;;22.13;64.64;97594.56;10422216;28;20049;-60
2023/08/02 14:03:47;;;;;;;0.88;0.60;;;;;;;22.39;63.61;97573.75;10423949;28;20075;-60
2023/08/02 14:08:49;;;;;;;0.20;0.20;;;;;;;22.41;63.05;97574.34;10427160;28;20056;-60
2023/08/02 14:13:51;;;;;;;0.30;0.30;;;;;;;22.62;62.67;97573.06;10420573;28;20041;-61
2023/08/02 14:18:53;;;;;;;0.47;0.30;;;;;;;22.60;60.51;97556.50;10424344;28;20080;-60
2023/08/02 14:23:56;;;;;;;0.32;0.30;;;;;;;22.54;61.24;97547.56;10424323;28;20060;-60
2023/08/02 14:28:58;;;;;;;0.55;0.40;;;;;;;22.96;60.95;97556.44;10422872;28;20072;-60
2023/08/02 14:34:00;;;;;;;0.35;0.30;;;;;;;23.19;60.16;97555.66;10424281;28;20045;-60
2023/08/02 14:39:02;;;;;;;0.52;0.25;;;;;;;23.30;59.56;97560.22;10427200;28;20048;-60
2023/08/02 14:44:04;;;;;;;0.30;0.30;;;;;;;23.45;59.10;97553.44;10421323;28;20132;-60
2023/08/02 14:49:06;;;;;;;0.20;0.20;;;;;;;23.41;59.27;97544.25;10421282;28;20083;-61
2023/08/02 14:54:08;;;;;;;0.20;0.20;;;;;;;23.09;59.31;97553.56;10422897;28;20037;-60
2023/08/02 14:59:14;;;;;;;0.32;0.30;;;;;;;22.92;59.72;97554.47;10425014;28;20044;-60
2023/08/02 15:04:16;;;;;;;0.52;0.22;;;;;;;23.36;58.84;97568.13;10418969;28;20408;-60
2023/08/02 15:09:18;;;;;;;0.30;0.30;;;;;;;23.66;58.08;97549.38;10424481;28;20466;-60
2023/08/02 15:14:20;;;;;;;0.30;0.30;;;;;;;23.94;57.50;97527.34;10419748;28;20049;-60
2023/08/02 15:19:23;;;;;;;0.28;0.28;;;;;;;24.05;56.83;97511.28;10422220;28;20508;-60
2023/08/02 15:24:25;;;;;;;0.40;0.40;;;;;;;24.19;57.05;97507.31;10419075;28;20041;-60
2023/08/02 15:29:27;;;;;;;0.50;0.35;;;;;;;23.77;56.80;97507.72;10413177;28;20120;-60
2023/08/02 15:34:29;;;;;;;1.95;0.45;;;;;;;23.79;56.92;97509.13;10419035;28;20095;-60
2023/08/02 15:39:32;;;;;;;0.40;0.30;;;;;;;23.79;56.42;97508.31;10421553;28;20076;-60
2023/08/02 15:44:35;;;;;;;0.47;0.47;;;;;;;23.73;55.88;97496.72;10419417;28;20045;-61
2023/08/02 15:49:39;;;;;;;0.98;0.40;;;;;;;23.85;56.52;97504.69;10419764;28;20049;-60
2023/08/02 15:54:41;;;;;;;0.68;0.52;;;;;;;23.93;56.20;97507.81;10422466;28;20514;-61
2023/08/02 15:59:43;;;;;;;0.60;0.50;;;;;;;23.95;55.22;97491.56;10421152;28;20099;-60
2023/08/02 16:04:45;;;;;;;0.45;0.45;;;;;;;23.88;55.05;97473.00;10415921;28;20048;-61
2023/08/02 16:09:47;;;;;;;1.00;0.60;;;;;;;23.82;55.02;97473.94;10419696;28;20057;-61
2023/08/02 16:14:49;;;;;;;0.57;0.47;;;;;;;23.56;55.76;97486.97;10423116;28;20508;-60
2023/08/02 16:19:51;;;;;;;0.75;0.70;;;;;;;23.38;56.35;97499.34;10416696;28;20047;-60
2023/08/02 16:24:54;;;;;;;0.82;0.70;;;;;;;24.16;55.57;97486.41;10415928;28;20126;-61
2023/08/02 16:29:56;;;;;;;1.95;0.68;;;;;;;24.18;54.61;97472.84;10415211;28;20790;-60
2023/08/02 16:34:59;;;;;;;1.40;0.68;;;;;;;24.13;54.46;97465.53;10415073;28;20078;-61
2023/08/02 16:40:01;;;;;;;0.60;0.60;;;;;;;24.18;54.19;97460.28;10411756;28;20045;-59
2023/08/02 16:45:07;;;;;;;0.40;0.40;;;;;;;24.26;53.38;97467.94;10416599;28;20500;-60
2023/08/02 16:50:10;;;;;;;0.95;0.50;;;;;;;23.99;51.47;97471.34;10414860;28;20687;-60
2023/08/02 16:55:12;;;;;;;1.05;0.70;;;;;;;23.78;49.17;97464.00;10420240;28;20400;-61
2023/08/02 17:00:14;;;;;;;0.52;0.50;;;;;;;23.74;50.15;97474.31;10416285;28;20045;-60
2023/08/02 17:05:17;;;;;;;0.82;0.52;;;;;;;23.84;48.45;97479.84;10420360;28;20040;-59
2023/08/02 17:10:19;;;;;;;0.57;0.40;;;;;;;23.75;49.41;97496.47;10424208;28;20243;-60
2023/08/02 17:15:21;;;;;;;0.63;0.60;;;;;;;23.86;49.44;97480.44;10427598;28;20120;-61
2023/08/02 17:20:23;;;;;;;0.77;0.60;;;;;;;24.02;49.66;97493.03;10424034;28;20572;-61
2023/08/02 17:25:26;;;;;;;0.43;0.40;;;;;;;24.30;49.59;97492.31;10424577;28;20057;-61
2023/08/02 17:30:28;;;;;;;1.55;0.60;;;;;;;24.52;49.43;97503.97;10420263;28;20098;-60
2023/08/02 17:35:30;;;;;;;0.30;0.30;;;;;;;24.55;48.32;97506.16;10421913;28;20599;-60
2023/08/02 17:40:32;;;;;;;0.90;0.52;;;;;;;24.24;48.52;97512.78;10422238;28;20076;-60
2023/08/02 17:45:36;;;;;;;0.55;0.45;;;;;;;23.97;47.90;97529.50;10423931;28;20493;-60
2023/08/02 17:50:39;;;;;;;3.60;0.95;;;;;;;23.86;47.28;97531.16;10420043;28;20040;-60
2023/08/02 17:55:41;;;;;;;1.10;0.60;;;;;;;23.62;46.71;97542.06;10421307;28;20064;-60
2023/08/02 18:00:44;;;;;;;0.40;0.40;;;;;;;23.29;46.50;97547.91;10416991;28;20107;-60
2023/08/02 18:05:46;;;;;;;4.60;0.60;;;;;;;23.02;46.21;97563.53;10420085;28;20467;-59
2023/08/02 18:10:49;;;;;;;1.95;0.93;;;;;;;22.68;44.70;97583.63;10421789;28;20049;-60
2023/08/02 18:15:51;;;;;;;3.45;0.70;;;;;;;22.16;43.56;97599.44;10421034;28;20501;-60
2023/08/02 18:20:53;;;;;;;1.27;0.60;;;;;;;21.89;43.67;97599.69;10420610;28;20052;-60
2023/08/02 18:25:55;;;;;;;1.23;0.82;;;;;;;21.66;42.34;97614.63;10423472;28;20057;-58
2023/08/02 18:31:01;;;;;;;2.20;0.50;;;;;;;21.49;43.57;97621.53;10419079;28;20479;-57
2023/08/02 18:36:14;;;;;;;4.68;0.70;;;;;;;21.34;43.14;97642.28;10424322;28;20045;-58
2023/08/02 18:41:23;;;;;;;0.80;0.70;;;;;;;21.35;43.29;97649.25;10423185;28;20119;-58
2023/08/02 18:46:25;;;;;;;2.00;0.90;;;;;;;21.26;44.84;97661.13;10422967;28;20045;-58
2023/08/02 18:51:28;;;;;;;2.80;0.65;;;;;;;21.12;45.29;97672.84;10421106;28;20290;-58
2023/08/02 18:56:30;;;;;;;3.30;0.70;;;;;;;21.01;45.72;97685.78;10423407;28;20220;-58
2023/08/02 19:01:32;;;;;;;2.10;0.45;;;;;;;21.05;46.03;97686.16;10420356;28;20693;-58
2023/08/02 19:06:35;;;;;;;4.25;0.90;;;;;;;21.00;46.85;97704.59;10421171;28;20049;-59
2023/08/02 19:11:40;;;;;;;1.20;0.60;;;;;;;20.93;46.41;97725.88;10425232;28;20051;-58
2023/08/02 19:16:43;;;;;;;3.47;0.82;;;;;;;20.75;46.23;97740.88;10419295;28;20053;-60
2023/08/02 19:21:49;;;;;;;11.10;1.35;;;;;;;20.55;46.44;97748.84;10420474;28;20520;-58
2023/08/02 19:26:51;;;;;;;4.88;1.30;;;;;;;20.40;47.13;97750.91;10420689;28;20489;-57
2023/08/02 19:31:57;;;;;;;7.25;0.82;;;;;;;20.26;46.99;97754.59;10420873;28;20048;-58
2023/08/02 19:37:01;;;;;;;15.13;2.05;;;;;;;20.11;47.41;97761.97;10417310;28;20725;-59
2023/08/02 19:42:03;;;;;;;4.13;0.93;;;;;;;19.94;48.02;97774.00;10419588;28;20125;-58
2023/08/02 19:47:05;;;;;;;5.30;1.10;;;;;;;19.78;48.05;97779.66;10414900;28;20076;-58
2023/08/02 19:52:09;;;;;;;2.20;1.00;;;;;;;19.71;48.16;97784.94;10417484;28;20051;-58
2023/08/02 19:57:13;;;;;;;2.47;0.70;;;;;;;19.69;48.61;97783.50;10411067;28;20118;-58
2023/08/02 20:02:22;;;;;;;2.10;0.77;;;;;;;19.58;47.92;97776.97;10422073;28;20056;-59
2023/08/02 20:07:25;;;;;;;4.07;0.73;;;;;;;19.51;48.61;97796.50;10421490;28;20954;-58
2023/08/02 20:12:27;;;;;;;4.95;1.42;;;;;;;19.45;48.51;97806.91;10421721;28;20081;-58
2023/08/02 20:17:29;;;;;;;3.65;1.00;;;;;;;19.33;48.43;97816.47;10423748;28;20056;-58
2023/08/02 20:22:31;;;;;;;2.17;0.70;;;;;;;19.28;48.35;97810.91;10421821;28;20052;-58
2023/08/02 20:27:35;;;;;;;3.20;0.73;;;;;;;19.32;48.34;97814.81;10421750;28;20053;-59
2023/08/02 20:32:40;;;;;;;4.70;1.15;;;;;;;19.27;48.35;97827.84;10425931;28;20428;-58
2023/08/02 20:37:42;;;;;;;2.58;0.95;;;;;;;19.38;48.33;97818.50;10423403;28;20506;-59
2023/08/02 20:42:44;;;;;;;2.15;0.98;;;;;;;19.35;48.10;97822.38;10423626;28;20135;-57
2023/08/02 20:47:46;;;;;;;4.10;0.77;;;;;;;19.32;48.20;97830.72;10416574;28;20208;-59
2023/08/02 20:52:49;;;;;;;3.33;0.88;;;;;;;19.25;48.41;97842.31;10421059;28;20409;-59
2023/08/02 20:57:51;;;;;;;0.52;0.40;;;;;;;19.18;48.23;97831.66;10423314;28;20049;-58
2023/08/02 21:02:53;;;;;;;1.65;0.52;;;;;;;19.15;48.33;97845.31;10424247;28;20049;-58
2023/08/02 21:07:56;;;;;;;1.83;0.82;;;;;;;19.08;47.97;97828.56;10420716;28;20045;-58
2023/08/02 21:12:59;;;;;;;4.60;1.40;;;;;;;19.15;48.31;97861.22;10423359;28;20146;-58
2023/08/02 21:18:01;;;;;;;1.67;0.80;;;;;;;19.10;48.11;97863.63;10423011;28;20045;-58
2023/08/02 21:23:12;;;;;;;2.13;0.70;;;;;;;19.06;48.13;97872.16;10422870;28;20045;-60
2023/08/02 21:28:19;;;;;;;2.22;0.88;;;;;;;19.12;48.08;97866.06;10423728;28;20045;-58
2023/08/02 21:33:23;;;;;;;1.80;0.90;;;;;;;19.16;48.55;97869.97;10425147;28;20763;-58
2023/08/02 21:38:33;;;;;;;2.25;1.08;;;;;;;19.16;48.08;97864.66;10429506;28;20044;-58
2023/08/02 21:43:36;;;;;;;2.03;0.63;;;;;;;19.25;48.33;97888.19;10428013;28;20128;-58
2023/08/02 21:48:49;;;;;;;2.70;0.80;;;;;;;19.32;47.71;97896.16;10427554;28;20452;-58
2023/08/02 21:53:53;;;;;;;3.53;1.08;;;;;;;19.37;48.49;97881.31;10429270;28;20861;-58
2023/08/02 21:59:00;;;;;;;1.15;0.55;;;;;;;19.38;48.45;97896.19;10430609;28;20049;-59
2023/08/02 22:04:04;;;;;;;6.30;1.90;;;;;;;19.42;48.10;97904.56;10425929;28;20370;-59
2023/08/02 22:09:08;;;;;;;2.47;0.70;;;;;;;19.51;48.26;97907.88;10430482;28;20055;-58
2023/08/02 22:14:11;;;;;;;4.47;1.25;;;;;;;19.42;48.67;97897.44;10425879;28;20045;-58
2023/08/02 22:19:13;;;;;;;2.25;0.80;;;;;;;19.42;49.05;97904.56;10428627;28;20479;-59
2023/08/02 22:24:15;;;;;;;2.08;0.80;;;;;;;19.34;49.48;97923.28;10426753;28;20122;-59
2023/08/02 22:29:17;;;;;;;4.95;1.38;;;;;;;19.32;49.61;97922.66;10429427;28;20505;-59
2023/08/02 22:34:19;;;;;;;0.80;0.65;;;;;;;19.27;49.59;97927.75;10427433;28;20116;-56
2023/08/02 22:39:21;;;;;;;5.93;1.58;;;;;;;19.08;49.81;97918.66;10429190;28;20473;-57
2023/08/02 22:44:23;;;;;;;4.85;1.77;;;;;;;19.12;50.14;97930.50;10424467;28;20053;-57
2023/08/02 22:49:28;;;;;;;1.92;0.80;;;;;;;19.26;50.08;97918.97;10429090;28;20122;-57
2023/08/02 22:54:34;;;;;;;3.78;0.70;;;;;;;19.17;50.05;97921.97;10426364;28;20047;-57
2023/08/02 22:59:36;;;;;;;2.08;0.88;;;;;;;19.12;50.27;97927.03;10426454;28;20382;-57
2023/08/02 23:04:38;;;;;;;0.98;0.70;;;;;;;19.15;50.27;97919.53;10426308;28;20824;-57
2023/08/02 23:09:41;;;;;;;3.65;1.13;;;;;;;19.13;50.10;97920.72;10426208;28;20045;-58
2023/08/02 23:14:48;;;;;;;2.55;0.77;;;;;;;19.09;50.84;97922.94;10427621;28;20123;-57
2023/08/02 23:19:50;;;;;;;7.80;1.30;;;;;;;19.02;51.18;97945.91;10427428;28;20098;-57
2023/08/02 23:24:53;;;;;;;2.17;0.80;;;;;;;18.96;51.00;97922.81;10424934;28;20049;-57
2023/08/02 23:29:55;;;;;;;3.28;1.25;;;;;;;19.00;50.62;97920.59;10426805;28;20448;-57
2023/08/02 23:34:56;;;;;;;0.40;0.40;;;;;;;18.89;50.66;97932.53;10426289;28;20465;-58
2023/08/02 23:39:58;;;;;;;3.03;0.85;;;;;;;18.99;50.68;97943.59;10425829;28;20481;-58
2023/08/02 23:45:00;;;;;;;2.30;0.90;;;;;;;18.80;51.01;97939.00;10425935;28;20386;-58
2023/08/02 23:50:03;;;;;;;1.13;0.73;;;;;;;18.83;51.22;97943.88;10420059;28;20049;-58
2023/08/02 23:55:05;;;;;;;0.65;0.50;;;;;;;18.92;50.89;97955.16;10420281;28;20147;-59
